D/T METAR WX W/SPE G/SPE TEMP DEWP FEEL
31/01/23 07:20 EGNT 310720Z 27021KT 9999 FEW030 07/03 Q1013 24.2mph 7°C 3°C 5.7°C
31/01/23 06:50 EGNT 310650Z 28020KT 9999 FEW012 08/04 Q1013 23.0mph 8°C 4°C 7.0°C
31/01/23 05:50 EGNT 310550Z 28020KT 9999 -RA BKN012 08/07 Q1013 -RA 23.0mph 8°C 7°C 8.0°C
30/01/23 21:50 EGNT 302150Z 26011KT 220V290 9999 FEW025 06/03 Q1019 12.7mph 6°C 3°C 4.7°C
30/01/23 12:50 EGNT 301250Z 30014KT 9999 FEW040 08/03 Q1021 16.1mph 8°C 3°C 6.7°C
30/01/23 11:50 EGNT 301150Z 30015KT CAVOK 08/02 Q1020 17.3mph 8°C 2°C 6.4°C
30/01/23 10:50 EGNT 301050Z 29012KT CAVOK 07/02 Q1020 13.8mph 7°C 2°C 5.4°C
30/01/23 09:50 EGNT 300950Z 30017KT CAVOK 06/02 Q1019 19.6mph 6°C 2°C 4.4°C
30/01/23 07:50 EGNT 300750Z 29012KT CAVOK 04/02 Q1017 13.8mph 4°C 2°C 2.4°C
30/01/23 06:50 EGNT 300650Z 29017KT CAVOK 05/02 Q1015 19.6mph 5°C 2°C 3.4°C
09/01/23 06:20 EGNT 090620Z 27011KT 9999 FEW016 05/03 Q0987 12.7mph 5°C 3°C 3.7°C
09/01/23 05:50 EGNT 090550Z 28010KT CAVOK 05/04 Q0987 11.5mph 5°C 4°C 4.0°C
09/01/23 05:20 EGNT 090520Z 28014KT CAVOK 06/04 Q0986 16.1mph 6°C 4°C 5.0°C
09/01/23 04:50 EGNT 090450Z AUTO 27011KT 9999 NCD 05/03 Q0986 12.7mph 5°C 3°C 3.7°C
09/01/23 04:20 EGNT 090420Z AUTO 28011KT 9999 FEW018/// 05/03 Q0985 12.7mph 5°C 3°C 3.7°C
09/01/23 03:50 EGNT 090350Z AUTO 28012KT 9999 BKN016/// 06/04 Q0985 13.8mph 6°C 4°C 5.0°C
09/01/23 03:20 EGNT 090320Z AUTO 28009KT 9999 OVC015/// 06/04 Q0985 10.4mph 6°C 4°C 5.0°C
09/01/23 02:50 EGNT 090250Z AUTO 28010KT 9999 OVC014/// 07/04 Q0985 11.5mph 7°C 4°C 6.0°C
09/01/23 02:20 EGNT 090220Z AUTO 27011KT 9999 OVC013/// 06/05 Q0984 12.7mph 6°C 5°C 5.3°C
09/01/23 01:20 EGNT 090120Z AUTO 27010KT 9999 OVC014/// 06/05 Q0983 11.5mph 6°C 5°C 5.3°C
09/01/23 00:50 EGNT 090050Z AUTO 28012KT 9999 OVC015/// 06/05 Q0983 13.8mph 6°C 5°C 5.3°C
09/01/23 00:20 EGNT 090020Z 27011KT 9999 BKN015 06/05 Q0983 12.7mph 6°C 5°C 5.3°C
08/01/23 23:50 EGNT 082350Z 26009KT 9999 BKN017 06/05 Q0982 10.4mph 6°C 5°C 5.3°C
08/01/23 22:50 EGNT 082250Z 22006KT 180V250 9999 -RA BKN017 04/04 Q0981 -RA 6.9mph 4°C 4°C 3.0°C
08/01/23 22:20 EGNT 082220Z 22006KT 180V250 9999 -RA SCT029 04/04 Q0982 -RA 6.9mph 4°C 4°C 3.0°C
08/01/23 20:50 EGNT 082050Z 21007KT 180V240 9999 -RA SCT032 04/03 Q0981 -RA 8.1mph 4°C 3°C 2.7°C
08/01/23 19:50 EGNT 081950Z 21005KT 170V240 9999 -RA FEW018 04/03 Q0981 -RA 5.8mph 4°C 3°C 2.7°C
08/01/23 19:20 EGNT 081920Z 22004KT 190V260 9999 -RA SCT035 04/03 Q0981 -RA 4.6mph 4°C 3°C 2.7°C
08/01/23 18:50 EGNT 081850Z 24005KT 200V270 9999 -RA SCT018 05/03 Q0982 -RA 5.8mph 5°C 3°C 3.7°C
08/01/23 18:20 EGNT 081820Z 21007KT 160V250 9999 FEW025 05/03 Q0982 8.1mph 5°C 3°C 3.7°C
08/01/23 17:50 EGNT 081750Z 22007KT 9999 FEW012 04/02 Q0981 8.1mph 4°C 2°C 2.4°C
08/01/23 17:20 EGNT 081720Z 22007KT 9999 FEW012 04/02 Q0981 8.1mph 4°C 2°C 2.4°C
08/01/23 16:50 EGNT 081650Z 23007KT 9999 FEW012 04/03 Q0981 8.1mph 4°C 3°C 2.7°C
08/01/23 16:20 EGNT 081620Z 22003KT 180V250 9999 FEW012 04/03 Q0981 3.5mph 4°C 3°C 2.7°C
08/01/23 15:50 EGNT 081550Z 22006KT 170V250 9999 FEW012 04/03 Q0981 6.9mph 4°C 3°C 2.7°C
08/01/23 14:50 EGNT 081450Z 22009KT 180V250 9999 FEW010 BKN045 05/03 Q0982 10.4mph 5°C 3°C 3.7°C
08/01/23 14:20 EGNT 081420Z 21009KT 180V260 8000 VCSH FEW010 05/04 Q0982 VCSH 10.4mph 5°C 4°C 4.0°C
08/01/23 13:50 EGNT 081350Z 19007KT 140V230 6000 -RA BKN018 06/04 Q0982 -RA 8.1mph 6°C 4°C 5.0°C
08/01/23 13:20 EGNT 081320Z 21006KT 170V250 9999 FEW018 SCT032 07/03 Q0983 6.9mph 7°C 3°C 5.7°C
08/01/23 12:50 EGNT 081250Z 22008KT 180V260 9999 SCT022 07/03 Q0983 9.2mph 7°C 3°C 5.7°C
08/01/23 12:20 EGNT 081220Z 22009KT 180V250 9999 FEW035 07/03 Q0983 10.4mph 7°C 3°C 5.7°C
08/01/23 11:50 EGNT 081150Z 21010KT 160V240 9999 FEW025 07/03 Q0984 11.5mph 7°C 3°C 5.7°C
08/01/23 10:50 EGNT 081050Z 23007KT 9999 FEW025 06/03 Q0985 8.1mph 6°C 3°C 4.7°C
08/01/23 10:20 EGNT 081020Z 21012KT 180V240 9999 FEW025 07/03 Q0985 13.8mph 7°C 3°C 5.7°C
08/01/23 09:50 EGNT 080950Z 21012KT 160V240 9999 FEW030 06/03 Q0984 13.8mph 6°C 3°C 4.7°C
08/01/23 09:20 EGNT 080920Z 19011KT 160V240 9999 FEW028 06/04 Q0984 12.7mph 6°C 4°C 5.0°C
08/01/23 08:50 EGNT 080850Z 22011KT 9999 FEW025CB FEW027 06/04 Q0985 12.7mph 6°C 4°C 5.0°C
08/01/23 08:20 EGNT 080820Z 21007KT 180V240 9999 FEW024 07/04 Q0985 8.1mph 7°C 4°C 6.0°C
08/01/23 07:50 EGNT 080750Z 22006KT 180V250 9999 SCT025 07/04 Q0985 6.9mph 7°C 4°C 6.0°C
08/01/23 07:20 EGNT 080720Z 18006KT 140V220 9999 SCT030 07/04 Q0985 6.9mph 7°C 4°C 6.0°C
08/01/23 06:50 EGNT 080650Z 21008KT 190V250 9999 FEW038 07/04 Q0985 9.2mph 7°C 4°C 6.0°C
08/01/23 06:20 EGNT 080620Z 21005KT 170V240 9999 FEW030 06/04 Q0985 5.8mph 6°C 4°C 5.0°C
08/01/23 05:50 EGNT 080550Z 20006KT 160V240 9999 FEW046 06/04 Q0985 6.9mph 6°C 4°C 5.0°C
08/01/23 05:20 EGNT 080520Z 19005KT 150V240 9999 FEW046 06/04 Q0985 5.8mph 6°C 4°C 5.0°C
08/01/23 04:50 EGNT 080450Z AUTO 22006KT 150V260 9999 FEW038/// 07/05 Q0985 6.9mph 7°C 5°C 6.3°C
08/01/23 04:20 EGNT 080420Z AUTO 22008KT 170V260 9999 FEW043/// 07/05 Q0985 9.2mph 7°C 5°C 6.3°C
08/01/23 03:20 EGNT 080320Z AUTO 23011KT 190V260 7000 -RA FEW033/// SCT039/// 08/05 Q0985 -RA 12.7mph 8°C 5°C 7.3°C
08/01/23 02:50 EGNT 080250Z AUTO 23011KT 200V260 9999 NCD 08/05 Q0985 12.7mph 8°C 5°C 7.3°C
08/01/23 02:20 EGNT 080220Z AUTO 23012G22KT 200V270 9999 FEW040/// 08/05 Q0984 RERA 13.8mph 25.3mph 8°C 5°C 7.3°C
08/01/23 01:50 EGNT 080150Z AUTO 24014KT 210V270 4900 RA FEW014/// SCT024/// BKN033/// 08/06 Q0984 RA 16.1mph 8°C 6°C 7.6°C
08/01/23 01:20 EGNT 080120Z 24016KT 9999 FEW024 SCT035 09/05 Q0984 18.4mph 9°C 5°C 8.3°C
08/01/23 00:20 EGNT 080020Z 22014KT 9999 SCT025 08/04 Q0983 16.1mph 8°C 4°C 7.0°C
07/01/23 23:50 EGNT 072350Z 22015G27KT 180V250 9999 SCT024 08/04 Q0984 17.3mph 31.1mph 8°C 4°C 7.0°C
07/01/23 22:50 EGNT 072250Z 21012KT 9999 SCT025 07/04 Q0984 13.8mph 7°C 4°C 6.0°C
07/01/23 22:20 EGNT 072220Z 22012KT 190V250 9999 SCT025 07/04 Q0984 13.8mph 7°C 4°C 6.0°C
07/01/23 21:50 EGNT 072150Z 20013KT 160V250 9999 FEW030 07/03 Q0984 15.0mph 7°C 3°C 5.7°C
07/01/23 20:50 EGNT 072050Z 21011KT 170V230 9999 FEW030 07/03 Q0984 12.7mph 7°C 3°C 5.7°C
07/01/23 20:20 EGNT 072020Z 20010KT 9999 FEW030 07/04 Q0985 11.5mph 7°C 4°C 6.0°C
07/01/23 19:20 EGNT 071920Z 22007KT 180V250 9999 FEW015 08/04 Q0986 8.1mph 8°C 4°C 7.0°C
07/01/23 18:50 EGNT 071850Z 22009KT 180V260 9999 SCT045 08/04 Q0986 10.4mph 8°C 4°C 7.0°C
07/01/23 18:20 EGNT 071820Z 23011KT 180V260 9999 FEW015 09/05 Q0986 12.7mph 9°C 5°C 8.3°C
07/01/23 17:50 EGNT 071750Z 20007KT 160V240 9999 SCT030 09/05 Q0986 8.1mph 9°C 5°C 8.3°C
07/01/23 17:20 EGNT 071720Z 21006KT 170V250 9999 FEW010 SCT045 09/05 Q0986 6.9mph 9°C 5°C 8.3°C
07/01/23 16:50 EGNT 071650Z 19004KT 150V220 9999 FEW010 SCT030 09/05 Q0987 4.6mph 9°C 5°C 8.3°C
07/01/23 16:20 EGNT 071620Z 17003KT 110V240 9999 FEW008 SCT034 09/05 Q0986 3.5mph 9°C 5°C 8.3°C
07/01/23 15:50 EGNT 071550Z 17004KT 140V210 9999 FEW012 09/05 Q0987 4.6mph 9°C 5°C 8.3°C
07/01/23 15:20 EGNT 071520Z 20006KT 170V240 9999 FEW030 09/05 Q0987 6.9mph 9°C 5°C 8.3°C
07/01/23 14:50 EGNT 071450Z 24008KT 210V280 9999 FEW015 10/05 Q0987 9.2mph 10°C 5°C 9.3°C
07/01/23 14:20 EGNT 071420Z 24009KT 9999 FEW036 10/05 Q0987 10.4mph 10°C 5°C 9.3°C
07/01/23 13:20 EGNT 071320Z 23008KT 190V270 9999 FEW008 SCT030 10/07 Q0988 9.2mph 10°C 7°C 10.0°C
07/01/23 12:50 EGNT 071250Z 20008KT 160V240 9999 FEW008 SCT030 11/08 Q0988 9.2mph 11°C 8°C 11.4°C
07/01/23 12:20 EGNT 071220Z 20007KT 140V250 9999 SCT016 BKN030 11/08 Q0988 8.1mph 11°C 8°C 11.4°C
07/01/23 11:50 EGNT 071150Z 21009KT 180V250 9999 FEW010 SCT028 11/08 Q0988 10.4mph 11°C 8°C 11.4°C
07/01/23 11:20 EGNT 071120Z 22008KT 160V260 9999 VCSH FEW018 BKN046 10/08 Q0988 VCSH 9.2mph 10°C 8°C 10.4°C
07/01/23 10:50 EGNT 071050Z 20009KT 160V290 9999 SCT021 BKN038 10/08 Q0989 10.4mph 10°C 8°C 10.4°C
07/01/23 10:20 EGNT 071020Z 19008KT 140V240 9999 SCT015 BKN036 10/09 Q0989 9.2mph 10°C 9°C 10.8°C
07/01/23 09:50 EGNT 070950Z 21011KT 170V250 9999 VCSH SCT013 BKN035 10/09 Q0989 VCSH 12.7mph 10°C 9°C 10.8°C
07/01/23 09:20 EGNT 070920Z 20008KT 170V230 8000 -RA SCT015 BKN040 10/09 Q0989 -RA 9.2mph 10°C 9°C 10.8°C
07/01/23 08:50 EGNT 070850Z 19010KT 160V240 8000 -RA SCT012 BKN034 11/10 Q0990 -RA 11.5mph 11°C 10°C 12.3°C
07/01/23 07:50 EGNT 070750Z 19009KT 130V220 9000 -RA BKN014 11/10 Q0990 -RA 10.4mph 11°C 10°C 12.3°C
07/01/23 06:50 EGNT 070650Z 18006KT 140V210 9000 -RA BKN020 10/09 Q0991 -RA 6.9mph 10°C 9°C 10.8°C
07/01/23 06:20 EGNT 070620Z 19007KT 160V220 9999 -RA BKN023 11/09 Q0991 -RA 8.1mph 11°C 9°C 11.8°C
07/01/23 05:50 EGNT 070550Z 20008KT 160V230 9999 -RA BKN012 11/09 Q0992 -RA 9.2mph 11°C 9°C 11.8°C
07/01/23 05:20 EGNT 070520Z 21009KT 180V250 9999 -RA BKN012 11/09 Q0992 -RA 10.4mph 11°C 9°C 11.8°C
07/01/23 04:50 EGNT 070450Z AUTO 21010KT 170V240 9999 BKN013/// OVC027/// 11/10 Q0993 RERA 11.5mph 11°C 10°C 12.3°C
07/01/23 04:20 EGNT 070420Z AUTO 20011KT 160V240 6000 -RA SCT011/// OVC023/// 11/10 Q0993 -RA 12.7mph 11°C 10°C 12.3°C